Time;durP1;ratioP1;P1;durP2;ratioP2;P2;SDS_P1;SDS_P2;PMS_P1;PMS_P2;Temp;Humidity;BMP_temperature;BMP_pressure;BME280_temperature;BME280_humidity;BME280_pressure;Samples;Min_cycle;Max_cycle;Signal;HPM_P1;HPM_P2
2022/06/23 00:02:24;;;;;;;1.45;0.60;;;13.90;99.90;;;;;;5012775;28;20025;-70
2022/06/23 00:04:57;;;;;;;3.80;0.68;;;14.00;99.90;;;;;;5012483;28;20045;-69
2022/06/23 00:07:28;;;;;;;3.45;0.90;;;14.10;99.90;;;;;;5012739;28;20478;-70
2022/06/23 00:09:56;;;;;;;2.25;0.65;;;14.20;99.90;;;;;;5012776;28;20022;-70
2022/06/23 00:12:30;;;;;;;1.50;0.65;;;14.30;99.90;;;;;;5012737;28;20053;-70
2022/06/23 00:15:21;;;;;;;4.05;1.00;;;14.40;99.90;;;;;;5011492;28;20018;-69
2022/06/23 00:18:01;;;;;;;1.67;0.60;;;14.50;99.90;;;;;;5012739;28;20398;-70
2022/06/23 00:20:33;;;;;;;2.70;0.93;;;14.50;99.90;;;;;;5012665;28;20113;-70
2022/06/23 00:23:06;;;;;;;2.67;0.77;;;14.70;99.90;;;;;;5012893;28;20026;-70
2022/06/23 00:25:45;;;;;;;1.13;0.75;;;14.60;99.90;;;;;;5012773;28;20057;-70
2022/06/23 00:28:17;;;;;;;1.55;0.82;;;14.70;99.90;;;;;;5012988;28;20033;-71
2022/06/23 00:30:50;;;;;;;1.25;0.70;;;14.70;99.90;;;;;;5012606;28;20053;-70
2022/06/23 00:33:23;;;;;;;2.08;0.80;;;14.70;99.90;;;;;;5013558;28;20018;-70
2022/06/23 00:35:52;;;;;;;3.15;0.70;;;14.80;99.90;;;;;;5016068;28;20045;-70
2022/06/23 00:38:25;;;;;;;1.70;0.70;;;14.80;99.90;;;;;;5016050;28;20088;-71
2022/06/23 00:40:54;;;;;;;2.45;0.90;;;14.90;99.90;;;;;;5016327;28;20026;-71
2022/06/23 00:43:23;;;;;;;2.13;1.00;;;15.10;99.90;;;;;;5016079;28;20029;-71
2022/06/23 00:46:06;;;;;;;4.82;1.00;;;15.10;99.90;;;;;;5014516;28;20026;-71
2022/06/23 00:48:45;;;;;;;3.72;1.27;;;15.20;99.90;;;;;;5015850;28;20066;-71
2022/06/23 00:51:22;;;;;;;4.50;1.20;;;15.20;99.90;;;;;;5014546;28;20026;-71
2022/06/23 00:54:10;;;;;;;2.80;0.90;;;15.20;99.90;;;;;;5014487;28;20030;-71
2022/06/23 00:57:03;;;;;;;2.05;0.98;;;15.10;99.90;;;;;;5016056;28;20022;-71
2022/06/23 00:59:34;;;;;;;4.20;1.25;;;15.20;99.90;;;;;;5016160;28;20101;-72
2022/06/23 01:02:24;;;;;;;0.98;0.70;;;15.20;99.90;;;;;;5015861;28;20025;-71
2022/06/23 01:04:54;;;;;;;2.90;0.73;;;15.20;99.90;;;;;;5015529;28;20034;-71
2022/06/23 01:07:51;;;;;;;1.55;1.23;;;15.30;99.90;;;;;;5015678;28;20030;-70
2022/06/23 01:10:36;;;;;;;3.78;0.93;;;15.30;99.90;;;;;;5015489;28;20032;-71
2022/06/23 01:13:21;;;;;;;3.47;0.93;;;15.40;99.90;;;;;;5013983;28;20018;-70
2022/06/23 01:16:20;;;;;;;3.58;1.08;;;15.50;99.90;;;;;;5015275;28;20021;-70
2022/06/23 01:18:56;;;;;;;1.98;0.93;;;15.50;99.90;;;;;;5013662;28;20034;-70
2022/06/23 01:21:32;;;;;;;1.90;0.60;;;15.60;99.90;;;;;;5015728;28;20438;-70
2022/06/23 01:24:20;;;;;;;2.95;0.80;;;15.60;99.90;;;;;;5015743;28;20026;-70
2022/06/23 01:27:19;;;;;;;2.00;0.60;;;15.60;99.90;;;;;;5013775;28;20022;-71
2022/06/23 01:30:08;;;;;;;3.45;0.70;;;15.70;99.90;;;;;;5003564;28;20041;-70
2022/06/23 01:32:43;;;;;;;1.60;0.75;;;15.90;99.90;;;;;;5013661;28;20025;-70
2022/06/23 01:35:27;;;;;;;3.53;0.60;;;16.00;99.90;;;;;;5013680;28;20026;-71
2022/06/23 01:38:02;;;;;;;1.45;0.82;;;16.10;99.90;;;;;;5015155;28;20036;-70
2022/06/23 01:40:51;;;;;;;2.25;0.80;;;16.10;99.90;;;;;;5014902;28;20048;-70
2022/06/23 01:43:23;;;;;;;1.83;0.60;;;16.00;99.90;;;;;;5014854;28;20061;-70
2022/06/23 01:46:16;;;;;;;2.22;0.80;;;16.20;99.90;;;;;;5013230;28;20033;-70
2022/06/23 01:49:19;;;;;;;1.88;0.55;;;16.20;99.90;;;;;;5014684;28;20030;-70
2022/06/23 01:51:52;;;;;;;1.98;0.50;;;16.40;99.90;;;;;;5005944;28;20026;-70
2022/06/23 01:54:24;;;;;;;1.05;0.40;;;16.60;99.90;;;;;;5014670;28;20018;-70
2022/06/23 01:57:11;;;;;;;4.10;0.60;;;16.70;99.90;;;;;;5013302;28;20029;-70
2022/06/23 01:59:43;;;;;;;3.92;0.80;;;16.80;99.90;;;;;;5014621;28;20021;-70
2022/06/23 02:02:33;;;;;;;3.88;0.80;;;16.80;99.90;;;;;;5013145;28;20113;-71
2022/06/23 02:05:22;;;;;;;2.20;0.60;;;16.80;99.90;;;;;;5014869;28;20502;-70
2022/06/23 02:07:52;;;;;;;1.20;0.60;;;16.70;99.90;;;;;;5013181;28;20030;-70
2022/06/23 02:10:31;;;;;;;1.10;0.45;;;16.80;99.90;;;;;;5013257;28;20082;-70
2022/06/23 02:13:10;;;;;;;2.70;0.90;;;16.60;99.90;;;;;;5014529;28;20506;-71
2022/06/23 02:16:00;;;;;;;1.90;0.70;;;16.60;99.90;;;;;;5014510;28;20018;-70
2022/06/23 02:18:38;;;;;;;2.10;0.57;;;16.60;99.90;;;;;;5014357;28;20546;-71
2022/06/23 02:21:49;;;;;;;4.35;1.00;;;16.70;99.90;;;;;;5014316;28;20259;-70
2022/06/23 02:24:25;;;;;;;3.58;0.85;;;16.80;99.90;;;;;;5012899;28;20030;-71
2022/06/23 02:26:59;;;;;;;2.75;1.00;;;16.90;99.90;;;;;;5012816;28;20026;-71
2022/06/23 02:29:29;;;;;;;2.50;1.00;;;16.80;99.90;;;;;;5012690;28;20026;-71
2022/06/23 02:32:22;;;;;;;3.33;1.10;;;16.80;99.90;;;;;;5014752;28;20466;-70
2022/06/23 02:35:21;;;;;;;3.00;0.90;;;16.90;99.90;;;;;;5012749;28;20030;-70
2022/06/23 02:38:02;;;;;;;6.00;0.80;;;16.80;99.90;;;;;;5014029;28;20110;-70
2022/06/23 02:40:28;;;;;;;;;;;16.80;99.90;;;;;;5014473;28;20021;-70
2022/06/23 02:43:23;;;;;;;2.53;0.60;;;16.90;99.90;;;;;;5012604;28;19912;-70
2022/06/23 02:46:28;;;;;;;2.03;0.45;;;17.10;99.90;;;;;;4991055;28;20030;-71
2022/06/23 02:49:29;;;;;;;2.67;0.85;;;17.20;99.90;;;;;;5013780;28;20033;-71
2022/06/23 02:52:11;;;;;;;1.02;0.60;;;17.30;99.90;;;;;;5012536;28;20022;-70
2022/06/23 02:55:11;;;;;;;2.75;1.45;;;17.30;99.90;;;;;;5012398;28;20406;-70
2022/06/23 02:58:10;;;;;;;2.15;0.40;;;17.40;99.90;;;;;;5013421;28;20028;-71
2022/06/23 03:00:56;;;;;;;1.45;0.40;;;17.60;99.90;;;;;;5012111;28;20476;-71
2022/06/23 03:03:42;;;;;;;1.92;0.60;;;17.60;99.90;;;;;;5012290;28;20029;-71
2022/06/23 03:06:45;;;;;;;1.50;0.63;;;17.60;99.90;;;;;;5011872;28;20440;-71
2022/06/23 03:09:29;;;;;;;0.98;0.40;;;17.70;99.90;;;;;;5013774;28;20032;-71
2022/06/23 03:12:18;;;;;;;1.17;0.55;;;17.80;99.90;;;;;;5013495;28;20033;-71
2022/06/23 03:15:03;;;;;;;1.98;0.55;;;17.90;99.90;;;;;;5013339;28;20037;-71
2022/06/23 03:17:45;;;;;;;0.60;0.30;;;17.90;99.90;;;;;;5013516;28;20093;-71
2022/06/23 03:20:46;;;;;;;1.45;0.50;;;18.00;99.90;;;;;;5012036;28;20423;-70
2022/06/23 03:23:40;;;;;;;1.60;0.40;;;17.90;99.90;;;;;;5013475;28;20029;-71
2022/06/23 03:26:08;;;;;;;1.52;0.40;;;17.90;99.90;;;;;;5011919;28;20371;-71
2022/06/23 03:28:40;;;;;;;1.58;0.40;;;18.00;99.90;;;;;;5011696;28;20056;-70
2022/06/23 03:31:30;;;;;;;1.35;0.30;;;17.90;99.90;;;;;;5011699;28;20022;-70
2022/06/23 03:34:03;;;;;;;0.70;0.38;;;17.90;99.90;;;;;;5011863;28;20034;-71
2022/06/23 03:36:41;;;;;;;2.00;0.57;;;18.00;99.90;;;;;;5011567;28;20482;-71
2022/06/23 03:42:35;;;;;;;3.92;0.80;;;18.00;99.90;;;;;;5013180;28;20072;-71
2022/06/23 03:45:15;;;;;;;1.30;0.40;;;18.00;99.90;;;;;;5011758;28;20038;-71
2022/06/23 03:47:45;;;;;;;1.17;0.50;;;18.10;99.90;;;;;;5012990;28;20050;-71
2022/06/23 03:50:20;;;;;;;2.05;0.60;;;18.00;99.90;;;;;;5012971;28;20026;-70
2022/06/23 03:53:09;;;;;;;1.05;0.55;;;18.00;99.90;;;;;;5013568;28;20351;-70
2022/06/23 03:55:51;;;;;;;0.82;0.40;;;18.00;99.90;;;;;;5012987;28;20101;-70
2022/06/23 03:58:28;;;;;;;1.45;0.43;;;17.90;99.90;;;;;;5012950;28;20026;-70
2022/06/23 04:01:03;;;;;;;0.77;0.45;;;17.80;99.90;;;;;;5011574;28;20052;-70
2022/06/23 04:04:02;;;;;;;2.72;0.52;;;17.90;99.90;;;;;;5013170;28;20478;-71
2022/06/23 04:06:41;;;;;;;1.73;0.70;;;18.00;99.90;;;;;;4979147;28;20053;-71
2022/06/23 04:09:20;;;;;;;1.27;0.45;;;18.10;99.90;;;;;;5013965;28;20037;-71
2022/06/23 04:12:08;;;;;;;2.28;0.60;;;17.90;99.90;;;;;;5016974;28;20025;-70
2022/06/23 04:14:39;;;;;;;2.92;0.50;;;17.90;99.90;;;;;;5016933;28;20072;-70
2022/06/23 04:17:41;;;;;;;1.67;0.50;;;17.90;99.90;;;;;;5016490;28;20104;-71
2022/06/23 04:20:44;;;;;;;0.57;0.50;;;17.90;99.90;;;;;;5015232;28;20097;-70
2022/06/23 04:23:33;;;;;;;2.67;0.82;;;17.90;99.90;;;;;;5014996;28;20034;-71
2022/06/23 04:26:21;;;;;;;2.35;0.68;;;17.90;99.90;;;;;;5015065;28;20057;-70
2022/06/23 04:28:58;;;;;;;1.65;0.50;;;17.90;99.90;;;;;;5016387;28;20033;-70
2022/06/23 04:31:34;;;;;;;0.60;0.40;;;17.90;99.90;;;;;;5016371;28;20022;-71
2022/06/23 04:34:03;;;;;;;0.80;0.40;;;17.90;99.90;;;;;;5016260;28;20018;-71
2022/06/23 04:36:43;;;;;;;1.15;0.50;;;17.80;99.90;;;;;;5016074;28;20170;-69
2022/06/23 04:39:35;;;;;;;3.45;0.38;;;17.80;99.90;;;;;;5016128;28;20032;-69
2022/06/23 04:42:25;;;;;;;1.38;0.35;;;17.90;99.90;;;;;;5009327;28;20075;-69
2022/06/23 04:45:15;;;;;;;1.30;0.35;;;17.80;99.90;;;;;;5016067;28;20026;-68
2022/06/23 04:47:44;;;;;;;0.85;0.30;;;17.90;99.90;;;;;;5015687;28;20033;-69
2022/06/23 04:50:31;;;;;;;2.30;0.40;;;17.80;99.90;;;;;;5014646;28;20077;-68
2022/06/23 04:52:59;;;;;;;2.45;0.40;;;17.80;99.90;;;;;;5014963;28;20025;-69
2022/06/23 04:55:32;;;;;;;1.45;0.52;;;17.80;99.90;;;;;;5016121;28;20018;-68
2022/06/23 04:58:03;;;;;;;1.50;0.40;;;17.80;99.90;;;;;;5015195;28;20041;-68
2022/06/23 05:00:43;;;;;;;1.33;0.30;;;17.80;99.90;;;;;;5015819;28;20026;-69
2022/06/23 05:03:13;;;;;;;;;;;17.90;99.90;;;;;;5014661;28;20121;-68
2022/06/23 05:05:42;;;;;;;0.68;0.20;;;18.00;99.90;;;;;;5015330;28;19918;-68
2022/06/23 05:08:23;;;;;;;2.05;0.38;;;17.90;99.90;;;;;;5014038;28;20038;-70
2022/06/23 05:11:02;;;;;;;0.32;0.10;;;17.90;99.90;;;;;;5016183;28;20026;-69
2022/06/23 05:13:45;;;;;;;0.25;0.10;;;17.80;99.90;;;;;;5015501;28;20022;-69
2022/06/23 05:16:43;;;;;;;0.43;0.20;;;17.80;99.90;;;;;;5015482;28;20029;-68
2022/06/23 05:19:24;;;;;;;2.78;0.50;;;17.70;99.90;;;;;;5014933;28;20113;-69
2022/06/23 05:22:00;;;;;;;1.35;0.30;;;17.50;99.90;;;;;;5013840;28;20034;-70
2022/06/23 05:24:34;;;;;;;1.48;0.25;;;17.50;99.90;;;;;;5015142;28;20104;-70
2022/06/23 05:27:32;;;;;;;0.45;0.30;;;17.40;99.90;;;;;;5015245;28;20026;-69
2022/06/23 05:30:18;;;;;;;1.13;0.20;;;17.30;99.90;;;;;;5015105;28;20064;-68
2022/06/23 05:32:50;;;;;;;1.08;0.20;;;17.20;99.90;;;;;;5015436;28;20411;-68
2022/06/23 05:35:24;;;;;;;1.85;0.30;;;17.10;99.90;;;;;;5015012;28;20022;-68
2022/06/23 05:38:20;;;;;;;1.75;0.20;;;17.10;99.90;;;;;;5014899;28;20216;-68
2022/06/23 05:40:56;;;;;;;0.32;0.20;;;17.00;99.90;;;;;;5013036;28;20030;-68
2022/06/23 05:43:25;;;;;;;0.55;0.20;;;16.90;99.90;;;;;;5013897;28;20076;-68
2022/06/23 05:46:01;;;;;;;0.40;0.20;;;16.80;99.90;;;;;;5013630;28;20029;-68
2022/06/23 05:48:44;;;;;;;0.68;0.30;;;16.70;99.90;;;;;;5014727;28;20041;-68
2022/06/23 05:51:11;;;;;;;0.95;0.30;;;16.60;99.90;;;;;;5014855;28;20118;-68
2022/06/23 05:54:19;;;;;;;2.80;0.20;;;16.50;99.90;;;;;;5014939;28;20030;-68
2022/06/23 05:57:16;;;;;;;1.15;0.35;;;16.30;99.90;;;;;;5005683;28;20494;-68
2022/06/23 05:59:47;;;;;;;2.13;0.30;;;16.20;99.90;;;;;;5007297;28;20100;-68
2022/06/23 06:02:33;;;;;;;;;;;16.10;99.90;;;;;;5015150;28;20025;-68
2022/06/23 06:05:03;;;;;;;0.90;0.30;;;16.00;99.90;;;;;;5012339;28;19920;-68
2022/06/23 06:07:39;;;;;;;1.70;0.45;;;15.90;99.90;;;;;;5014429;28;20022;-68
2022/06/23 06:10:13;;;;;;;0.75;0.30;;;15.90;99.90;;;;;;5013112;28;20032;-69
2022/06/23 06:12:42;;;;;;;1.15;0.30;;;15.70;99.90;;;;;;5013135;28;20375;-68
2022/06/23 06:15:21;;;;;;;0.80;0.45;;;15.70;99.90;;;;;;5014199;28;20451;-69
2022/06/23 06:17:50;;;;;;;0.73;0.30;;;15.70;99.90;;;;;;5014429;28;20018;-69
2022/06/23 06:20:22;;;;;;;1.08;0.32;;;15.60;99.90;;;;;;5014287;28;20022;-69
2022/06/23 06:23:04;;;;;;;1.77;0.40;;;15.60;99.90;;;;;;5014513;28;20097;-69
2022/06/23 06:25:38;;;;;;;0.70;0.30;;;15.50;99.90;;;;;;5014155;28;20033;-69
2022/06/23 06:28:30;;;;;;;0.73;0.28;;;15.40;99.90;;;;;;5012935;28;20477;-70
2022/06/23 06:31:09;;;;;;;1.65;0.50;;;15.40;99.90;;;;;;5008757;28;20034;-69
2022/06/23 06:34:02;;;;;;;0.90;0.30;;;15.30;99.90;;;;;;5013898;28;20068;-71
2022/06/23 06:36:36;;;;;;;0.68;0.30;;;15.20;99.90;;;;;;5014032;28;20100;-70
2022/06/23 06:39:24;;;;;;;0.52;0.10;;;15.20;99.90;;;;;;5014024;28;20026;-69
2022/06/23 06:42:05;;;;;;;0.65;0.30;;;15.20;99.90;;;;;;5013677;28;20114;-68
2022/06/23 06:44:34;;;;;;;0.65;0.30;;;15.10;99.90;;;;;;5013889;28;20026;-68
2022/06/23 06:47:02;;;;;;;1.55;0.40;;;15.10;99.90;;;;;;5013843;28;20386;-69
2022/06/23 06:49:32;;;;;;;1.00;0.40;;;15.00;99.90;;;;;;5013759;28;20485;-69
2022/06/23 06:52:00;;;;;;;1.63;0.40;;;15.00;99.90;;;;;;5013786;28;20030;-68
2022/06/23 06:54:50;;;;;;;1.52;0.50;;;15.00;99.90;;;;;;5013626;28;20033;-68
2022/06/23 06:57:35;;;;;;;0.65;0.25;;;14.90;99.90;;;;;;5012398;28;20025;-69
2022/06/23 07:00:13;;;;;;;0.50;0.20;;;14.80;99.90;;;;;;5013505;28;20022;-69
2022/06/23 07:02:51;;;;;;;0.82;0.40;;;14.70;99.90;;;;;;5012237;28;20030;-69
2022/06/23 07:05:32;;;;;;;1.10;0.30;;;14.70;99.90;;;;;;5013238;28;20046;-69
2022/06/23 07:08:22;;;;;;;1.40;0.50;;;14.60;99.90;;;;;;5013950;28;20410;-69
2022/06/23 07:10:58;;;;;;;1.23;0.45;;;14.50;99.90;;;;;;5013333;28;20013;-70
2022/06/23 07:13:53;;;;;;;0.70;0.40;;;14.50;99.90;;;;;;5012193;28;20113;-70
2022/06/23 07:16:28;;;;;;;1.05;0.40;;;14.40;99.90;;;;;;5013259;28;20455;-68
2022/06/23 07:19:19;;;;;;;1.80;0.40;;;14.40;99.90;;;;;;5013562;28;20052;-69
2022/06/23 07:22:05;;;;;;;1.52;0.80;;;14.30;99.90;;;;;;5012824;28;20049;-68
2022/06/23 07:24:51;;;;;;;3.38;0.60;;;14.30;99.90;;;;;;5013260;28;20045;-69
2022/06/23 07:27:34;;;;;;;3.72;0.80;;;14.20;99.90;;;;;;5013142;28;20021;-69
2022/06/23 07:30:28;;;;;;;3.20;0.60;;;14.20;99.90;;;;;;5013782;28;20052;-71
2022/06/23 07:32:59;;;;;;;2.50;0.43;;;14.20;99.90;;;;;;5011813;28;20025;-70
2022/06/23 07:35:51;;;;;;;2.00;0.82;;;14.20;99.90;;;;;;5013255;28;20044;-69
2022/06/23 07:38:28;;;;;;;3.35;0.80;;;14.10;99.90;;;;;;5013063;28;20105;-69
2022/06/23 07:40:58;;;;;;;2.00;0.95;;;14.10;99.90;;;;;;5013203;28;20040;-69
2022/06/23 07:43:32;;;;;;;2.47;0.88;;;14.00;99.90;;;;;;5016606;28;20382;-70
2022/06/23 07:46:01;;;;;;;1.58;0.70;;;14.00;99.90;;;;;;5017191;28;20080;-69
2022/06/23 07:48:33;;;;;;;2.22;0.80;;;14.00;99.90;;;;;;5017211;28;20422;-69
2022/06/23 07:51:06;;;;;;;1.73;0.90;;;14.00;99.90;;;;;;5017131;28;20026;-69
2022/06/23 07:53:41;;;;;;;1.65;0.70;;;14.00;99.90;;;;;;5015819;28;20108;-68
2022/06/23 07:56:14;;;;;;;2.50;0.98;;;13.80;99.90;;;;;;5017056;28;20026;-68
2022/06/23 07:58:45;;;;;;;2.33;1.17;;;13.70;99.90;;;;;;5016895;28;20026;-69
2022/06/23 08:01:34;;;;;;;2.67;1.15;;;13.70;99.90;;;;;;5017084;28;20543;-70
2022/06/23 08:04:11;;;;;;;2.72;0.90;;;13.60;99.90;;;;;;5017232;28;20156;-70
2022/06/23 08:06:39;;;;;;;2.67;1.15;;;13.40;99.90;;;;;;5015533;28;20060;-71
2022/06/23 08:09:32;;;;;;;1.98;0.80;;;13.50;99.90;;;;;;5017012;28;20041;-69
2022/06/23 08:16:49;;;;;;;1.20;0.88;;;13.30;99.90;;;;;;5017169;28;20060;-67
2022/06/23 08:17:46;;;;;;;2.53;0.93;;;13.20;99.90;;;;;;5016629;28;20042;-67
2022/06/23 08:20:18;;;;;;;1.75;0.77;;;13.10;99.90;;;;;;5016651;28;20022;-69
2022/06/23 08:22:47;;;;;;;1.95;0.85;;;13.00;99.90;;;;;;5015394;28;20397;-70
2022/06/23 08:25:17;;;;;;;3.10;1.00;;;13.00;99.90;;;;;;5015230;28;20477;-69
2022/06/23 08:27:45;;;;;;;4.47;1.02;;;13.00;99.90;;;;;;5016426;28;20026;-70
2022/06/23 08:30:17;;;;;;;1.92;1.00;;;13.00;99.90;;;;;;5015120;28;20022;-71
2022/06/23 08:32:50;;;;;;;1.27;0.70;;;12.90;99.90;;;;;;5016723;28;20014;-71
2022/06/23 08:35:38;;;;;;;1.13;0.80;;;13.00;99.90;;;;;;5016358;28;20018;-69
2022/06/23 08:38:21;;;;;;;2.38;1.20;;;13.00;99.90;;;;;;5016363;28;20033;-69
2022/06/23 08:41:01;;;;;;;1.27;0.98;;;13.00;99.90;;;;;;5014854;28;20026;-69
2022/06/23 08:43:47;;;;;;;2.63;0.88;;;13.00;99.90;;;;;;5016286;28;20033;-71
2022/06/23 08:46:23;;;;;;;2.80;0.98;;;13.00;99.90;;;;;;5016354;28;20026;-71
2022/06/23 08:49:08;;;;;;;2.33;1.30;;;13.00;99.90;;;;;;5016160;28;20367;-70
2022/06/23 08:51:51;;;;;;;1.98;1.10;;;12.90;99.90;;;;;;5014970;28;20021;-69
2022/06/23 08:54:45;;;;;;;2.60;1.50;;;12.90;99.90;;;;;;5015461;28;20356;-69
2022/06/23 08:57:34;;;;;;;1.73;1.08;;;12.80;99.90;;;;;;5015794;28;20022;-70
2022/06/23 09:00:11;;;;;;;2.10;1.20;;;12.70;99.90;;;;;;5014363;28;20033;-69
2022/06/23 09:03:05;;;;;;;2.30;0.93;;;12.60;99.90;;;;;;5015849;28;20049;-69
2022/06/23 09:06:03;;;;;;;1.98;1.30;;;12.60;99.90;;;;;;5014031;28;20056;-69
2022/06/23 09:08:50;;;;;;;2.45;1.63;;;12.50;99.90;;;;;;5015684;28;20030;-68
2022/06/23 09:11:36;;;;;;;2.08;1.30;;;12.50;99.90;;;;;;5015647;28;20068;-69
2022/06/23 09:14:28;;;;;;;2.85;1.30;;;12.50;99.90;;;;;;5014272;28;20080;-67
2022/06/23 09:17:17;;;;;;;1.83;1.30;;;12.40;99.90;;;;;;5015449;28;20057;-68
2022/06/23 09:19:59;;;;;;;2.75;1.50;;;12.30;99.90;;;;;;5015667;28;20021;-69
2022/06/23 09:22:57;;;;;;;2.53;1.33;;;12.30;99.90;;;;;;5015747;28;20382;-69
2022/06/23 09:25:59;;;;;;;2.63;1.50;;;12.30;99.90;;;;;;5015810;28;20030;-69
2022/06/23 09:28:44;;;;;;;3.08;1.30;;;12.40;99.90;;;;;;5015082;28;20114;-69
2022/06/23 09:31:32;;;;;;;2.60;1.38;;;12.40;99.90;;;;;;5015778;28;20026;-69
2022/06/23 09:33:59;;;;;;;1.70;1.05;;;12.40;99.90;;;;;;5013744;28;20032;-69
2022/06/23 09:36:50;;;;;;;1.90;1.30;;;12.50;99.90;;;;;;5015171;28;20045;-68
2022/06/23 09:39:50;;;;;;;2.40;1.38;;;12.50;99.90;;;;;;5015140;28;20097;-69
2022/06/23 09:42:25;;;;;;;2.70;1.40;;;12.50;99.90;;;;;;4986607;28;20038;-68
2022/06/23 09:45:14;;;;;;;2.95;1.92;;;12.50;99.90;;;;;;5014985;28;20029;-69
2022/06/23 09:47:44;;;;;;;2.05;1.73;;;12.50;99.90;;;;;;5015007;28;20037;-67
2022/06/23 09:50:25;;;;;;;2.63;1.48;;;12.50;99.90;;;;;;5014943;28;20022;-67
2022/06/23 09:53:18;;;;;;;2.30;2.05;;;12.50;99.90;;;;;;5015385;28;20458;-67
2022/06/23 09:56:04;;;;;;;2.85;1.50;;;12.40;99.90;;;;;;5015108;28;20405;-68
2022/06/23 09:58:34;;;;;;;1.95;1.40;;;12.40;99.90;;;;;;5015090;28;20029;-67
2022/06/23 10:01:17;;;;;;;2.95;1.70;;;12.30;99.90;;;;;;5015089;28;20145;-68
2022/06/23 10:04:02;;;;;;;2.53;1.38;;;12.30;99.90;;;;;;5014841;28;20029;-68
2022/06/23 10:06:41;;;;;;;2.22;1.50;;;12.20;99.90;;;;;;5014397;28;20120;-68
2022/06/23 10:09:26;;;;;;;1.75;1.30;;;12.30;99.90;;;;;;5014859;28;20474;-68
2022/06/23 10:12:29;;;;;;;1.80;1.27;;;12.20;99.90;;;;;;5014451;28;20470;-68
2022/06/23 10:14:59;;;;;;;2.42;1.40;;;12.30;99.90;;;;;;5014791;28;20018;-68
2022/06/23 10:17:45;;;;;;;1.77;1.40;;;12.20;99.90;;;;;;5014438;28;20023;-68
2022/06/23 10:20:56;;;;;;;3.30;1.80;;;12.20;99.90;;;;;;5014481;28;20370;-69
2022/06/23 10:23:51;;;;;;;2.50;1.42;;;12.30;99.90;;;;;;5014199;28;20030;-68
2022/06/23 10:26:19;;;;;;;2.22;1.45;;;12.30;99.90;;;;;;5014264;28;20029;-68
2022/06/23 10:29:10;;;;;;;2.10;1.67;;;12.30;99.90;;;;;;5014237;28;20386;-68
2022/06/23 10:32:12;;;;;;;2.95;1.25;;;12.30;99.90;;;;;;5014292;28;20386;-68
2022/06/23 10:35:00;;;;;;;3.05;1.50;;;12.30;99.90;;;;;;5014077;28;20018;-68
2022/06/23 10:38:18;;;;;;;2.63;1.77;;;12.30;99.90;;;;;;5014336;28;20034;-68
2022/06/23 10:41:04;;;;;;;2.28;1.33;;;12.20;99.90;;;;;;4972965;28;20090;-68
2022/06/23 10:43:49;;;;;;;2.40;1.00;;;12.20;99.90;;;;;;5009809;28;20041;-69
2022/06/23 10:46:28;;;;;;;2.63;1.30;;;12.20;99.90;;;;;;5014340;28;20032;-68
2022/06/23 10:49:25;;;;;;;2.53;1.05;;;12.20;99.90;;;;;;5014312;28;20109;-69
2022/06/23 10:52:10;;;;;;;2.17;1.20;;;12.10;99.90;;;;;;5014428;28;20085;-69
2022/06/23 10:54:48;;;;;;;1.80;1.20;;;12.00;99.90;;;;;;5014087;28;20083;-69
2022/06/23 10:57:33;;;;;;;1.63;1.10;;;11.90;99.90;;;;;;5013797;28;20029;-69
2022/06/23 11:00:20;;;;;;;2.38;1.00;;;11.90;99.90;;;;;;5013753;28;20561;-69
2022/06/23 11:03:25;;;;;;;1.88;1.08;;;11.90;99.90;;;;;;5013642;28;20017;-68
2022/06/23 11:06:29;;;;;;;1.35;0.90;;;11.80;99.90;;;;;;4992829;28;20625;-68
2022/06/23 11:09:23;;;;;;;1.33;0.95;;;12.00;99.90;;;;;;5012103;28;20030;-71
2022/06/23 11:12:09;;;;;;;1.88;0.90;;;12.00;99.90;;;;;;5013418;28;20075;-69
2022/06/23 11:14:51;;;;;;;1.10;1.00;;;11.90;99.90;;;;;;5013989;28;20378;-69
2022/06/23 11:17:34;;;;;;;1.10;0.90;;;11.90;99.90;;;;;;5011697;28;20068;-69
2022/06/23 11:20:21;;;;;;;2.20;0.88;;;12.00;99.90;;;;;;5013382;28;20022;-70
2022/06/23 11:23:07;;;;;;;0.98;0.80;;;12.00;99.90;;;;;;5013586;28;20042;-69
2022/06/23 11:26:01;;;;;;;1.70;0.90;;;12.10;99.90;;;;;;5013632;28;20022;-69
2022/06/23 11:28:35;;;;;;;1.20;0.88;;;12.00;99.90;;;;;;5013425;28;20129;-69
2022/06/23 11:31:37;;;;;;;1.38;0.90;;;12.00;99.90;;;;;;5013255;28;20018;-69
2022/06/23 11:34:04;;;;;;;1.60;1.05;;;12.00;99.90;;;;;;4972145;28;20019;-70
2022/06/23 11:36:42;;;;;;;0.85;0.77;;;11.90;99.90;;;;;;5000730;28;20117;-69
2022/06/23 11:39:21;;;;;;;1.00;0.80;;;11.90;99.90;;;;;;5013212;28;20026;-69
2022/06/23 11:42:17;;;;;;;2.00;0.80;;;11.90;99.90;;;;;;5013539;28;20044;-68
2022/06/23 11:45:20;;;;;;;1.60;0.90;;;11.80;99.90;;;;;;5013113;28;20022;-68
2022/06/23 11:48:15;;;;;;;1.35;0.80;;;11.90;99.90;;;;;;5013037;28;20033;-69
2022/06/23 11:50:51;;;;;;;1.75;1.00;;;11.90;99.90;;;;;;5013380;28;20026;-73
2022/06/23 11:53:27;;;;;;;2.17;0.93;;;11.90;99.90;;;;;;5013282;28;20022;-68
2022/06/23 11:56:06;;;;;;;1.30;0.90;;;11.80;99.90;;;;;;5013103;28;20389;-68
2022/06/23 11:59:07;;;;;;;1.38;0.70;;;11.80;99.90;;;;;;5013092;28;20021;-69
2022/06/23 12:01:34;;;;;;;1.55;0.88;;;11.70;99.90;;;;;;5012964;28;20052;-69
2022/06/23 12:04:27;;;;;;;1.40;0.70;;;11.80;99.90;;;;;;5012931;28;20030;-68
2022/06/23 12:07:06;;;;;;;1.90;0.90;;;11.70;99.90;;;;;;5012724;28;20046;-68
2022/06/23 12:10:12;;;;;;;1.25;0.80;;;11.60;99.90;;;;;;5013149;28;20385;-67
2022/06/23 12:12:42;;;;;;;1.65;0.98;;;11.50;99.90;;;;;;5013362;28;20033;-68
2022/06/23 12:15:10;;;;;;;0.85;0.60;;;11.50;99.90;;;;;;5012818;28;20030;-68
2022/06/23 12:17:44;;;;;;;1.13;0.88;;;11.50;99.90;;;;;;5011525;28;20025;-69
2022/06/23 12:20:38;;;;;;;1.90;0.82;;;11.60;99.90;;;;;;5012836;28;20113;-69
2022/06/23 12:23:33;;;;;;;1.15;0.60;;;11.50;99.90;;;;;;5011435;28;20036;-68
2022/06/23 12:26:08;;;;;;;0.95;0.70;;;11.50;99.90;;;;;;5011466;28;20033;-68
2022/06/23 12:28:43;;;;;;;1.63;0.70;;;11.40;99.90;;;;;;5013073;28;20022;-70
2022/06/23 12:31:23;;;;;;;1.00;0.65;;;11.40;99.90;;;;;;5016846;28;20485;-70
2022/06/23 12:34:14;;;;;;;1.30;0.65;;;11.30;99.90;;;;;;5014974;28;20029;-70
2022/06/23 12:36:51;;;;;;;0.50;0.50;;;11.40;99.90;;;;;;5016299;28;20029;-70
2022/06/23 12:39:44;;;;;;;1.13;0.68;;;11.50;99.90;;;;;;5016315;28;20129;-69
2022/06/23 12:42:45;;;;;;;1.95;1.17;;;11.40;99.90;;;;;;5016308;28;20022;-69
2022/06/23 12:45:42;;;;;;;1.38;0.70;;;11.30;99.90;;;;;;5016242;28;20026;-70
2022/06/23 12:48:24;;;;;;;0.68;0.68;;;11.10;99.90;;;;;;5016226;28;20025;-69
2022/06/23 12:51:12;;;;;;;1.90;0.80;;;11.10;99.90;;;;;;5014791;28;20028;-69
2022/06/23 12:54:15;;;;;;;1.25;0.70;;;11.00;99.90;;;;;;5016172;28;20026;-69
2022/06/23 12:57:12;;;;;;;1.25;0.57;;;11.10;99.90;;;;;;5014607;28;20030;-69
2022/06/23 13:00:16;;;;;;;1.02;0.77;;;11.10;99.90;;;;;;5016095;28;20068;-69
2022/06/23 13:02:56;;;;;;;1.13;0.73;;;11.20;99.90;;;;;;5015975;28;20162;-68
2022/06/23 13:05:26;;;;;;;0.88;0.47;;;11.30;99.90;;;;;;5015899;28;20046;-69
2022/06/23 13:08:12;;;;;;;0.73;0.52;;;11.40;99.90;;;;;;5014307;28;20424;-69
2022/06/23 13:11:01;;;;;;;2.58;0.80;;;11.60;99.90;;;;;;5015726;28;20104;-69
2022/06/23 13:13:35;;;;;;;0.85;0.60;;;11.60;99.90;;;;;;5015601;28;20026;-69
2022/06/23 13:16:20;;;;;;;1.20;0.60;;;11.60;99.90;;;;;;5015938;28;20537;-70
2022/06/23 13:19:30;;;;;;;1.33;0.73;;;11.70;99.90;;;;;;5015802;28;20033;-69
2022/06/23 13:22:08;;;;;;;1.88;0.60;;;11.70;99.90;;;;;;4974238;28;20423;-69
2022/06/23 13:24:41;;;;;;;1.20;0.63;;;11.70;99.90;;;;;;4958141;28;20547;-68
2022/06/23 13:27:19;;;;;;;0.82;0.50;;;11.80;99.90;;;;;;4999176;28;20132;-67
2022/06/23 13:30:05;;;;;;;1.67;0.70;;;11.90;99.90;;;;;;5015656;28;20481;-68
2022/06/23 13:32:41;;;;;;;0.90;0.60;;;11.80;99.90;;;;;;5015331;28;20026;-68
2022/06/23 13:35:27;;;;;;;1.35;0.70;;;11.80;99.90;;;;;;5015257;28;20098;-68
2022/06/23 13:37:59;;;;;;;0.95;0.50;;;11.90;99.90;;;;;;5015252;28;20386;-69
2022/06/23 13:40:44;;;;;;;0.65;0.60;;;11.80;99.90;;;;;;5015431;28;20478;-68
2022/06/23 13:43:21;;;;;;;0.80;0.50;;;11.80;99.90;;;;;;5015458;28;20075;-68
2022/06/23 13:45:52;;;;;;;1.10;0.70;;;11.80;99.90;;;;;;5015477;28;20398;-68
2022/06/23 13:48:36;;;;;;;1.00;0.65;;;11.70;99.90;;;;;;5014920;28;20054;-68
2022/06/23 13:51:23;;;;;;;1.10;0.68;;;11.70;99.90;;;;;;5013759;28;20093;-69
2022/06/23 13:54:15;;;;;;;1.70;0.50;;;11.60;99.90;;;;;;5007867;28;20056;-69
2022/06/23 13:56:55;;;;;;;1.45;0.68;;;11.60;99.90;;;;;;5013537;28;20402;-69
2022/06/23 13:59:56;;;;;;;1.05;0.65;;;11.60;99.90;;;;;;5013507;28;20120;-69
2022/06/23 14:02:51;;;;;;;2.33;0.90;;;11.50;99.90;;;;;;5014730;28;20033;-69
2022/06/23 14:05:25;;;;;;;1.60;0.57;;;11.50;99.90;;;;;;5013079;28;20060;-68
2022/06/23 14:07:58;;;;;;;0.70;0.50;;;11.50;99.90;;;;;;5014916;28;20032;-69
2022/06/23 14:10:48;;;;;;;1.13;0.73;;;11.40;99.90;;;;;;5013192;28;20022;-69
2022/06/23 14:13:41;;;;;;;1.02;0.70;;;11.30;99.90;;;;;;5014619;28;20533;-69
2022/06/23 14:16:42;;;;;;;1.45;0.90;;;11.30;99.90;;;;;;5014837;28;20041;-68